sensor_id;sensor_type;location;lat;lon;timestamp;P1;durP1;ratioP1;P2;durP2;ratioP2
69900;SDS011;57183;50.930;5.406;2023-02-08T00:02:25;27.88;;;15.55;;
69900;SDS011;57183;50.930;5.406;2023-02-08T00:04:51;29.40;;;16.50;;
69900;SDS011;57183;50.930;5.406;2023-02-08T00:07:16;32.25;;;16.48;;
69900;SDS011;57183;50.930;5.406;2023-02-08T00:09:42;31.17;;;15.95;;
69900;SDS011;57183;50.930;5.406;2023-02-08T00:12:09;27.50;;;17.40;;
69900;SDS011;57183;50.930;5.406;2023-02-08T00:14:35;52.70;;;24.60;;
69900;SDS011;57183;50.930;5.406;2023-02-08T00:17:01;37.85;;;19.45;;
69900;SDS011;57183;50.930;5.406;2023-02-08T00:19:26;36.47;;;19.73;;
69900;SDS011;57183;50.930;5.406;2023-02-08T00:21:55;34.60;;;16.40;;
69900;SDS011;57183;50.930;5.406;2023-02-08T00:24:20;31.95;;;16.45;;
69900;SDS011;57183;50.930;5.406;2023-02-08T00:26:46;27.08;;;14.95;;
69900;SDS011;57183;50.930;5.406;2023-02-08T00:29:11;30.92;;;15.43;;
69900;SDS011;57183;50.930;5.406;2023-02-08T00:31:37;32.90;;;16.60;;
69900;SDS011;57183;50.930;5.406;2023-02-08T00:34:03;25.10;;;14.73;;
69900;SDS011;57183;50.930;5.406;2023-02-08T00:36:29;30.25;;;15.13;;
69900;SDS011;57183;50.930;5.406;2023-02-08T00:38:55;34.75;;;15.90;;
69900;SDS011;57183;50.930;5.406;2023-02-08T00:41:20;22.98;;;15.20;;
69900;SDS011;57183;50.930;5.406;2023-02-08T00:43:46;27.30;;;15.73;;
69900;SDS011;57183;50.930;5.406;2023-02-08T00:46:12;27.80;;;15.88;;
69900;SDS011;57183;50.930;5.406;2023-02-08T00:48:38;34.70;;;17.50;;
69900;SDS011;57183;50.930;5.406;2023-02-08T00:51:05;41.35;;;18.30;;
69900;SDS011;57183;50.930;5.406;2023-02-08T00:53:37;50.47;;;23.38;;
69900;SDS011;57183;50.930;5.406;2023-02-08T00:56:04;34.00;;;17.70;;
69900;SDS011;57183;50.930;5.406;2023-02-08T00:58:31;33.78;;;17.25;;
69900;SDS011;57183;50.930;5.406;2023-02-08T01:00:56;36.92;;;17.02;;
69900;SDS011;57183;50.930;5.406;2023-02-08T01:03:22;31.00;;;16.38;;
69900;SDS011;57183;50.930;5.406;2023-02-08T01:05:49;30.45;;;14.60;;
69900;SDS011;57183;50.930;5.406;2023-02-08T01:08:14;27.58;;;14.15;;
69900;SDS011;57183;50.930;5.406;2023-02-08T01:10:40;32.05;;;16.17;;
69900;SDS011;57183;50.930;5.406;2023-02-08T01:13:06;29.27;;;16.77;;
69900;SDS011;57183;50.930;5.406;2023-02-08T01:15:32;29.23;;;15.95;;
69900;SDS011;57183;50.930;5.406;2023-02-08T01:17:59;31.80;;;15.93;;
69900;SDS011;57183;50.930;5.406;2023-02-08T01:20:25;30.23;;;17.52;;
69900;SDS011;57183;50.930;5.406;2023-02-08T01:22:50;32.45;;;17.40;;
69900;SDS011;57183;50.930;5.406;2023-02-08T01:25:16;31.05;;;15.70;;
69900;SDS011;57183;50.930;5.406;2023-02-08T01:27:42;31.40;;;16.90;;
69900;SDS011;57183;50.930;5.406;2023-02-08T01:30:08;23.52;;;14.65;;
69900;SDS011;57183;50.930;5.406;2023-02-08T01:32:34;28.80;;;16.52;;
69900;SDS011;57183;50.930;5.406;2023-02-08T01:35:00;30.02;;;17.25;;
69900;SDS011;57183;50.930;5.406;2023-02-08T01:37:26;30.80;;;18.15;;
69900;SDS011;57183;50.930;5.406;2023-02-08T01:39:51;32.28;;;16.52;;
69900;SDS011;57183;50.930;5.406;2023-02-08T01:42:17;27.08;;;15.07;;
69900;SDS011;57183;50.930;5.406;2023-02-08T01:47:46;25.15;;;13.70;;
69900;SDS011;57183;50.930;5.406;2023-02-08T01:50:14;23.85;;;13.68;;
69900;SDS011;57183;50.930;5.406;2023-02-08T01:52:44;22.85;;;13.98;;
69900;SDS011;57183;50.930;5.406;2023-02-08T01:55:15;27.58;;;13.82;;
69900;SDS011;57183;50.930;5.406;2023-02-08T01:58:03;30.92;;;14.40;;
69900;SDS011;57183;50.930;5.406;2023-02-08T02:00:33;32.63;;;16.63;;
69900;SDS011;57183;50.930;5.406;2023-02-08T02:02:59;34.90;;;16.15;;
69900;SDS011;57183;50.930;5.406;2023-02-08T02:05:31;26.38;;;15.57;;
69900;SDS011;57183;50.930;5.406;2023-02-08T02:08:02;29.40;;;16.10;;
69900;SDS011;57183;50.930;5.406;2023-02-08T02:10:29;29.00;;;17.00;;
69900;SDS011;57183;50.930;5.406;2023-02-08T02:13:02;34.25;;;18.80;;
69900;SDS011;57183;50.930;5.406;2023-02-08T02:15:36;28.17;;;14.75;;
69900;SDS011;57183;50.930;5.406;2023-02-08T02:18:03;29.05;;;16.10;;
69900;SDS011;57183;50.930;5.406;2023-02-08T02:23:30;27.02;;;15.07;;
69900;SDS011;57183;50.930;5.406;2023-02-08T02:28:50;23.27;;;12.97;;
69900;SDS011;57183;50.930;5.406;2023-02-08T02:31:42;41.35;;;21.67;;
69900;SDS011;57183;50.930;5.406;2023-02-08T02:34:46;47.28;;;22.58;;
69900;SDS011;57183;50.930;5.406;2023-02-08T02:37:54;31.27;;;16.08;;
69900;SDS011;57183;50.930;5.406;2023-02-08T02:40:39;32.15;;;14.35;;
69900;SDS011;57183;50.930;5.406;2023-02-08T02:43:13;28.92;;;15.88;;
69900;SDS011;57183;50.930;5.406;2023-02-08T02:51:32;22.38;;;13.32;;
69900;SDS011;57183;50.930;5.406;2023-02-08T02:54:10;24.92;;;14.35;;
69900;SDS011;57183;50.930;5.406;2023-02-08T02:57:01;25.05;;;13.93;;
69900;SDS011;57183;50.930;5.406;2023-02-08T02:59:31;17.37;;;9.80;;
69900;SDS011;57183;50.930;5.406;2023-02-08T03:01:58;26.77;;;14.80;;
69900;SDS011;57183;50.930;5.406;2023-02-08T03:21:08;21.35;;;13.43;;
69900;SDS011;57183;50.930;5.406;2023-02-08T03:26:54;29.17;;;13.73;;
69900;SDS011;57183;50.930;5.406;2023-02-08T03:32:16;24.70;;;12.85;;
69900;SDS011;57183;50.930;5.406;2023-02-08T03:37:18;22.20;;;12.95;;
69900;SDS011;57183;50.930;5.406;2023-02-08T03:39:50;23.80;;;12.25;;
69900;SDS011;57183;50.930;5.406;2023-02-08T03:42:23;21.45;;;12.93;;
69900;SDS011;57183;50.930;5.406;2023-02-08T03:44:53;19.00;;;11.88;;
69900;SDS011;57183;50.930;5.406;2023-02-08T03:47:40;23.88;;;13.00;;
69900;SDS011;57183;50.930;5.406;2023-02-08T03:50:18;24.23;;;13.15;;
69900;SDS011;57183;50.930;5.406;2023-02-08T03:52:46;24.42;;;13.68;;
69900;SDS011;57183;50.930;5.406;2023-02-08T03:55:15;20.55;;;12.68;;
69900;SDS011;57183;50.930;5.406;2023-02-08T03:57:49;26.88;;;15.00;;
69900;SDS011;57183;50.930;5.406;2023-02-08T04:00:18;24.30;;;12.85;;
69900;SDS011;57183;50.930;5.406;2023-02-08T04:02:56;23.52;;;14.40;;
69900;SDS011;57183;50.930;5.406;2023-02-08T04:05:40;24.73;;;14.63;;
69900;SDS011;57183;50.930;5.406;2023-02-08T04:08:15;30.88;;;13.52;;
69900;SDS011;57183;50.930;5.406;2023-02-08T04:10:43;28.58;;;15.93;;
69900;SDS011;57183;50.930;5.406;2023-02-08T04:13:10;27.27;;;15.23;;
69900;SDS011;57183;50.930;5.406;2023-02-08T04:15:36;23.63;;;12.98;;
69900;SDS011;57183;50.930;5.406;2023-02-08T04:18:02;25.60;;;13.75;;
69900;SDS011;57183;50.930;5.406;2023-02-08T04:20:30;23.75;;;13.52;;
69900;SDS011;57183;50.930;5.406;2023-02-08T04:22:56;27.90;;;14.10;;
69900;SDS011;57183;50.930;5.406;2023-02-08T04:25:22;23.90;;;13.45;;
69900;SDS011;57183;50.930;5.406;2023-02-08T04:27:48;27.95;;;14.13;;
69900;SDS011;57183;50.930;5.406;2023-02-08T04:30:13;24.38;;;13.63;;
69900;SDS011;57183;50.930;5.406;2023-02-08T04:32:39;24.45;;;12.75;;
69900;SDS011;57183;50.930;5.406;2023-02-08T04:35:23;19.38;;;10.27;;
69900;SDS011;57183;50.930;5.406;2023-02-08T04:37:48;23.63;;;13.32;;
69900;SDS011;57183;50.930;5.406;2023-02-08T04:40:14;28.77;;;14.23;;
69900;SDS011;57183;50.930;5.406;2023-02-08T04:42:40;23.92;;;13.98;;
69900;SDS011;57183;50.930;5.406;2023-02-08T04:45:06;24.98;;;13.80;;
69900;SDS011;57183;50.930;5.406;2023-02-08T04:47:32;27.27;;;13.35;;
69900;SDS011;57183;50.930;5.406;2023-02-08T04:49:57;23.65;;;12.43;;
69900;SDS011;57183;50.930;5.406;2023-02-08T04:52:23;20.92;;;12.75;;
69900;SDS011;57183;50.930;5.406;2023-02-08T04:54:49;23.67;;;12.18;;
69900;SDS011;57183;50.930;5.406;2023-02-08T04:57:15;18.98;;;11.20;;
69900;SDS011;57183;50.930;5.406;2023-02-08T04:59:40;21.92;;;12.23;;
69900;SDS011;57183;50.930;5.406;2023-02-08T05:02:06;30.08;;;14.15;;
69900;SDS011;57183;50.930;5.406;2023-02-08T05:04:32;26.83;;;14.10;;
69900;SDS011;57183;50.930;5.406;2023-02-08T05:06:58;23.65;;;13.65;;
69900;SDS011;57183;50.930;5.406;2023-02-08T05:09:41;22.63;;;13.57;;
69900;SDS011;57183;50.930;5.406;2023-02-08T05:12:07;22.25;;;13.38;;
69900;SDS011;57183;50.930;5.406;2023-02-08T05:14:33;24.33;;;13.52;;
69900;SDS011;57183;50.930;5.406;2023-02-08T05:16:58;25.25;;;14.45;;
69900;SDS011;57183;50.930;5.406;2023-02-08T05:19:25;26.17;;;12.88;;
69900;SDS011;57183;50.930;5.406;2023-02-08T05:21:50;20.63;;;12.05;;
69900;SDS011;57183;50.930;5.406;2023-02-08T05:24:17;21.50;;;11.80;;
69900;SDS011;57183;50.930;5.406;2023-02-08T05:26:43;19.13;;;11.88;;
69900;SDS011;57183;50.930;5.406;2023-02-08T05:29:09;21.38;;;11.35;;
69900;SDS011;57183;50.930;5.406;2023-02-08T05:31:35;20.08;;;11.45;;
69900;SDS011;57183;50.930;5.406;2023-02-08T05:34:01;23.35;;;12.73;;
69900;SDS011;57183;50.930;5.406;2023-02-08T05:36:27;24.67;;;12.52;;
69900;SDS011;57183;50.930;5.406;2023-02-08T05:38:53;23.30;;;12.20;;
69900;SDS011;57183;50.930;5.406;2023-02-08T05:41:19;20.63;;;12.60;;
69900;SDS011;57183;50.930;5.406;2023-02-08T05:44:02;23.88;;;13.63;;
69900;SDS011;57183;50.930;5.406;2023-02-08T05:46:31;21.08;;;12.07;;
69900;SDS011;57183;50.930;5.406;2023-02-08T05:48:57;25.10;;;14.10;;
69900;SDS011;57183;50.930;5.406;2023-02-08T05:51:23;23.60;;;13.00;;
69900;SDS011;57183;50.930;5.406;2023-02-08T05:53:48;19.92;;;11.93;;
69900;SDS011;57183;50.930;5.406;2023-02-08T05:56:14;24.00;;;13.32;;
69900;SDS011;57183;50.930;5.406;2023-02-08T05:58:40;24.45;;;12.75;;
69900;SDS011;57183;50.930;5.406;2023-02-08T06:01:06;24.17;;;12.93;;
69900;SDS011;57183;50.930;5.406;2023-02-08T06:03:34;27.92;;;14.20;;
69900;SDS011;57183;50.930;5.406;2023-02-08T06:06:03;21.25;;;12.27;;
69900;SDS011;57183;50.930;5.406;2023-02-08T06:08:29;21.02;;;13.48;;
69900;SDS011;57183;50.930;5.406;2023-02-08T06:10:55;23.02;;;14.07;;
69900;SDS011;57183;50.930;5.406;2023-02-08T06:13:21;25.33;;;14.35;;
69900;SDS011;57183;50.930;5.406;2023-02-08T06:16:07;27.10;;;14.88;;
69900;SDS011;57183;50.930;5.406;2023-02-08T06:18:32;32.42;;;14.75;;
69900;SDS011;57183;50.930;5.406;2023-02-08T06:21:01;26.17;;;12.25;;
69900;SDS011;57183;50.930;5.406;2023-02-08T06:23:28;21.90;;;12.32;;
69900;SDS011;57183;50.930;5.406;2023-02-08T06:25:54;33.70;;;14.73;;
69900;SDS011;57183;50.930;5.406;2023-02-08T06:28:20;25.88;;;13.75;;
69900;SDS011;57183;50.930;5.406;2023-02-08T06:30:49;22.63;;;13.20;;
69900;SDS011;57183;50.930;5.406;2023-02-08T06:33:16;24.83;;;13.48;;
69900;SDS011;57183;50.930;5.406;2023-02-08T06:35:53;20.40;;;12.23;;
69900;SDS011;57183;50.930;5.406;2023-02-08T06:38:28;22.38;;;12.18;;
69900;SDS011;57183;50.930;5.406;2023-02-08T06:40:53;20.73;;;12.57;;
69900;SDS011;57183;50.930;5.406;2023-02-08T06:43:19;19.85;;;11.68;;
69900;SDS011;57183;50.930;5.406;2023-02-08T06:45:45;23.63;;;13.30;;
69900;SDS011;57183;50.930;5.406;2023-02-08T06:48:11;25.00;;;12.65;;
69900;SDS011;57183;50.930;5.406;2023-02-08T06:50:37;25.27;;;13.50;;
69900;SDS011;57183;50.930;5.406;2023-02-08T06:53:03;27.63;;;13.63;;
69900;SDS011;57183;50.930;5.406;2023-02-08T06:55:31;21.15;;;12.23;;
69900;SDS011;57183;50.930;5.406;2023-02-08T06:57:57;19.98;;;12.43;;
69900;SDS011;57183;50.930;5.406;2023-02-08T07:00:23;20.98;;;13.35;;
69900;SDS011;57183;50.930;5.406;2023-02-08T07:02:52;23.52;;;12.65;;
69900;SDS011;57183;50.930;5.406;2023-02-08T07:05:17;21.08;;;12.13;;
69900;SDS011;57183;50.930;5.406;2023-02-08T07:07:43;22.38;;;13.05;;
69900;SDS011;57183;50.930;5.406;2023-02-08T07:10:29;19.30;;;11.68;;
69900;SDS011;57183;50.930;5.406;2023-02-08T07:12:57;25.20;;;13.07;;
69900;SDS011;57183;50.930;5.406;2023-02-08T07:15:22;22.05;;;12.50;;
69900;SDS011;57183;50.930;5.406;2023-02-08T07:17:48;23.63;;;14.05;;
69900;SDS011;57183;50.930;5.406;2023-02-08T07:20:14;26.17;;;12.95;;
69900;SDS011;57183;50.930;5.406;2023-02-08T07:22:40;24.10;;;12.73;;
69900;SDS011;57183;50.930;5.406;2023-02-08T07:25:07;26.50;;;13.40;;
69900;SDS011;57183;50.930;5.406;2023-02-08T07:27:33;21.90;;;13.65;;
69900;SDS011;57183;50.930;5.406;2023-02-08T07:30:00;25.45;;;13.98;;
69900;SDS011;57183;50.930;5.406;2023-02-08T07:32:25;24.92;;;14.27;;
69900;SDS011;57183;50.930;5.406;2023-02-08T07:34:54;27.63;;;13.88;;
69900;SDS011;57183;50.930;5.406;2023-02-08T07:37:22;26.77;;;13.73;;
69900;SDS011;57183;50.930;5.406;2023-02-08T07:39:48;25.58;;;13.52;;
69900;SDS011;57183;50.930;5.406;2023-02-08T07:42:14;23.27;;;12.90;;
69900;SDS011;57183;50.930;5.406;2023-02-08T07:44:39;23.67;;;14.57;;
69900;SDS011;57183;50.930;5.406;2023-02-08T07:47:13;28.85;;;15.68;;
69900;SDS011;57183;50.930;5.406;2023-02-08T07:49:41;26.95;;;15.55;;
69900;SDS011;57183;50.930;5.406;2023-02-08T07:52:09;24.02;;;15.38;;
69900;SDS011;57183;50.930;5.406;2023-02-08T07:54:35;27.48;;;15.18;;
69900;SDS011;57183;50.930;5.406;2023-02-08T07:57:01;24.13;;;13.73;;
69900;SDS011;57183;50.930;5.406;2023-02-08T07:59:27;22.13;;;13.40;;
69900;SDS011;57183;50.930;5.406;2023-02-08T08:01:54;19.95;;;13.70;;
69900;SDS011;57183;50.930;5.406;2023-02-08T08:04:20;22.75;;;13.20;;
69900;SDS011;57183;50.930;5.406;2023-02-08T08:06:46;23.17;;;14.30;;
69900;SDS011;57183;50.930;5.406;2023-02-08T08:09:13;26.38;;;15.13;;
69900;SDS011;57183;50.930;5.406;2023-02-08T08:11:39;21.48;;;12.73;;
69900;SDS011;57183;50.930;5.406;2023-02-08T08:14:05;29.58;;;14.05;;
69900;SDS011;57183;50.930;5.406;2023-02-08T08:16:31;26.35;;;14.43;;
69900;SDS011;57183;50.930;5.406;2023-02-08T08:18:57;23.95;;;13.68;;
69900;SDS011;57183;50.930;5.406;2023-02-08T08:21:23;26.65;;;14.65;;
69900;SDS011;57183;50.930;5.406;2023-02-08T08:23:49;22.42;;;13.98;;
69900;SDS011;57183;50.930;5.406;2023-02-08T08:26:25;20.02;;;13.27;;
69900;SDS011;57183;50.930;5.406;2023-02-08T08:28:53;32.67;;;15.30;;
69900;SDS011;57183;50.930;5.406;2023-02-08T08:31:20;28.75;;;15.70;;
69900;SDS011;57183;50.930;5.406;2023-02-08T08:33:48;27.38;;;15.75;;
69900;SDS011;57183;50.930;5.406;2023-02-08T08:36:24;29.55;;;15.73;;
69900;SDS011;57183;50.930;5.406;2023-02-08T08:38:51;26.42;;;15.25;;
69900;SDS011;57183;50.930;5.406;2023-02-08T08:41:21;22.45;;;14.48;;
69900;SDS011;57183;50.930;5.406;2023-02-08T08:43:47;26.90;;;14.73;;
69900;SDS011;57183;50.930;5.406;2023-02-08T08:46:14;27.13;;;15.02;;
69900;SDS011;57183;50.930;5.406;2023-02-08T08:48:41;23.48;;;14.73;;
69900;SDS011;57183;50.930;5.406;2023-02-08T08:51:09;31.30;;;14.38;;
69900;SDS011;57183;50.930;5.406;2023-02-08T08:53:41;24.45;;;13.98;;
69900;SDS011;57183;50.930;5.406;2023-02-08T08:56:09;20.25;;;14.38;;
69900;SDS011;57183;50.930;5.406;2023-02-08T08:58:35;21.38;;;14.00;;
69900;SDS011;57183;50.930;5.406;2023-02-08T09:01:02;23.27;;;14.07;;
69900;SDS011;57183;50.930;5.406;2023-02-08T09:03:28;25.90;;;15.85;;
69900;SDS011;57183;50.930;5.406;2023-02-08T09:05:54;22.05;;;14.35;;
69900;SDS011;57183;50.930;5.406;2023-02-08T09:08:21;26.95;;;15.05;;
69900;SDS011;57183;50.930;5.406;2023-02-08T09:10:47;30.52;;;14.35;;
69900;SDS011;57183;50.930;5.406;2023-02-08T09:13:15;19.38;;;13.23;;
69900;SDS011;57183;50.930;5.406;2023-02-08T09:15:46;21.90;;;14.63;;
69900;SDS011;57183;50.930;5.406;2023-02-08T09:18:13;24.60;;;13.98;;
69900;SDS011;57183;50.930;5.406;2023-02-08T09:20:42;25.50;;;14.90;;
69900;SDS011;57183;50.930;5.406;2023-02-08T09:23:10;21.48;;;14.18;;
69900;SDS011;57183;50.930;5.406;2023-02-08T09:25:46;29.35;;;14.10;;
69900;SDS011;57183;50.930;5.406;2023-02-08T09:28:12;24.08;;;15.40;;
69900;SDS011;57183;50.930;5.406;2023-02-08T09:30:41;22.63;;;13.77;;
69900;SDS011;57183;50.930;5.406;2023-02-08T09:33:10;28.30;;;14.13;;
69900;SDS011;57183;50.930;5.406;2023-02-08T09:35:36;27.23;;;14.45;;
69900;SDS011;57183;50.930;5.406;2023-02-08T09:38:08;22.23;;;14.07;;
69900;SDS011;57183;50.930;5.406;2023-02-08T09:40:44;23.35;;;14.02;;
69900;SDS011;57183;50.930;5.406;2023-02-08T09:49:39;22.70;;;14.88;;
69900;SDS011;57183;50.930;5.406;2023-02-08T09:52:17;24.52;;;15.00;;
69900;SDS011;57183;50.930;5.406;2023-02-08T09:54:50;24.45;;;14.07;;
69900;SDS011;57183;50.930;5.406;2023-02-08T09:57:22;22.80;;;14.40;;
69900;SDS011;57183;50.930;5.406;2023-02-08T10:00:13;30.45;;;17.00;;
69900;SDS011;57183;50.930;5.406;2023-02-08T10:02:43;33.78;;;18.02;;
69900;SDS011;57183;50.930;5.406;2023-02-08T10:05:21;35.55;;;18.88;;
69900;SDS011;57183;50.930;5.406;2023-02-08T10:07:49;31.50;;;17.73;;
69900;SDS011;57183;50.930;5.406;2023-02-08T10:10:20;34.30;;;18.88;;
69900;SDS011;57183;50.930;5.406;2023-02-08T10:15:46;31.77;;;19.05;;
69900;SDS011;57183;50.930;5.406;2023-02-08T10:21:12;32.35;;;19.17;;
69900;SDS011;57183;50.930;5.406;2023-02-08T10:24:55;29.17;;;17.55;;
69900;SDS011;57183;50.930;5.406;2023-02-08T10:27:15;23.55;;;14.25;;
69900;SDS011;57183;50.930;5.406;2023-02-08T10:35:10;17.88;;;11.52;;
69900;SDS011;57183;50.930;5.406;2023-02-08T10:37:39;18.35;;;10.70;;
69900;SDS011;57183;50.930;5.406;2023-02-08T10:42:51;21.23;;;9.43;;
69900;SDS011;57183;50.930;5.406;2023-02-08T10:45:31;20.13;;;9.18;;
69900;SDS011;57183;50.930;5.406;2023-02-08T10:48:11;15.07;;;10.07;;
69900;SDS011;57183;50.930;5.406;2023-02-08T10:50:45;13.43;;;8.63;;
69900;SDS011;57183;50.930;5.406;2023-02-08T10:53:13;12.60;;;9.10;;
69900;SDS011;57183;50.930;5.406;2023-02-08T10:55:45;11.20;;;8.45;;
69900;SDS011;57183;50.930;5.406;2023-02-08T10:58:18;13.88;;;9.18;;
69900;SDS011;57183;50.930;5.406;2023-02-08T11:00:46;10.70;;;8.38;;
69900;SDS011;57183;50.930;5.406;2023-02-08T11:03:15;15.05;;;9.68;;
69900;SDS011;57183;50.930;5.406;2023-02-08T11:05:46;11.80;;;8.57;;
69900;SDS011;57183;50.930;5.406;2023-02-08T11:08:16;13.57;;;8.98;;
69900;SDS011;57183;50.930;5.406;2023-02-08T11:11:08;12.75;;;8.77;;
69900;SDS011;57183;50.930;5.406;2023-02-08T11:16:12;20.55;;;10.70;;
69900;SDS011;57183;50.930;5.406;2023-02-08T11:18:51;18.00;;;9.60;;
69900;SDS011;57183;50.930;5.406;2023-02-08T11:21:25;14.68;;;9.27;;
69900;SDS011;57183;50.930;5.406;2023-02-08T11:23:57;13.65;;;9.30;;
69900;SDS011;57183;50.930;5.406;2023-02-08T11:26:50;13.98;;;9.18;;
69900;SDS011;57183;50.930;5.406;2023-02-08T11:29:20;25.80;;;11.02;;
69900;SDS011;57183;50.930;5.406;2023-02-08T11:34:31;21.20;;;13.45;;
69900;SDS011;57183;50.930;5.406;2023-02-08T11:39:51;18.02;;;12.85;;
69900;SDS011;57183;50.930;5.406;2023-02-08T11:42:26;30.17;;;13.80;;
69900;SDS011;57183;50.930;5.406;2023-02-08T11:45:02;24.58;;;14.07;;
69900;SDS011;57183;50.930;5.406;2023-02-08T11:47:32;22.83;;;16.75;;
69900;SDS011;57183;50.930;5.406;2023-02-08T11:50:29;30.27;;;16.58;;
69900;SDS011;57183;50.930;5.406;2023-02-08T11:53:33;19.30;;;12.52;;
69900;SDS011;57183;50.930;5.406;2023-02-08T11:56:12;18.92;;;10.02;;
69900;SDS011;57183;50.930;5.406;2023-02-08T12:01:28;19.83;;;10.65;;
69900;SDS011;57183;50.930;5.406;2023-02-08T12:12:38;14.65;;;9.02;;
69900;SDS011;57183;50.930;5.406;2023-02-08T12:25:34;13.50;;;7.65;;
69900;SDS011;57183;50.930;5.406;2023-02-08T12:38:19;11.35;;;6.85;;
69900;SDS011;57183;50.930;5.406;2023-02-08T12:42:12;7.47;;;4.30;;
69900;SDS011;57183;50.930;5.406;2023-02-08T12:56:01;6.53;;;2.95;;
69900;SDS011;57183;50.930;5.406;2023-02-08T12:58:37;5.35;;;3.03;;
69900;SDS011;57183;50.930;5.406;2023-02-08T13:01:09;6.22;;;2.50;;
69900;SDS011;57183;50.930;5.406;2023-02-08T13:06:32;3.17;;;2.40;;
69900;SDS011;57183;50.930;5.406;2023-02-08T13:09:21;9.70;;;2.22;;
69900;SDS011;57183;50.930;5.406;2023-02-08T13:11:58;4.90;;;3.10;;
69900;SDS011;57183;50.930;5.406;2023-02-08T13:14:42;3.15;;;1.80;;
69900;SDS011;57183;50.930;5.406;2023-02-08T13:17:16;4.03;;;1.98;;
69900;SDS011;57183;50.930;5.406;2023-02-08T13:22:29;3.38;;;2.42;;
69900;SDS011;57183;50.930;5.406;2023-02-08T13:24:59;2.88;;;2.10;;
69900;SDS011;57183;50.930;5.406;2023-02-08T13:27:37;3.83;;;2.15;;
69900;SDS011;57183;50.930;5.406;2023-02-08T13:30:04;2.90;;;1.83;;
69900;SDS011;57183;50.930;5.406;2023-02-08T13:32:39;3.55;;;1.70;;
69900;SDS011;57183;50.930;5.406;2023-02-08T13:35:19;8.55;;;1.73;;
69900;SDS011;57183;50.930;5.406;2023-02-08T13:38:01;4.00;;;2.00;;
69900;SDS011;57183;50.930;5.406;2023-02-08T13:40:35;3.05;;;1.70;;
69900;SDS011;57183;50.930;5.406;2023-02-08T13:46:00;2.22;;;1.23;;
69900;SDS011;57183;50.930;5.406;2023-02-08T13:48:26;2.88;;;1.77;;
69900;SDS011;57183;50.930;5.406;2023-02-08T13:59:29;4.35;;;2.10;;
69900;SDS011;57183;50.930;5.406;2023-02-08T14:04:42;4.90;;;2.92;;
69900;SDS011;57183;50.930;5.406;2023-02-08T14:10:19;5.05;;;2.35;;
69900;SDS011;57183;50.930;5.406;2023-02-08T14:13:16;8.15;;;2.78;;
69900;SDS011;57183;50.930;5.406;2023-02-08T14:18:50;6.47;;;3.45;;
69900;SDS011;57183;50.930;5.406;2023-02-08T14:21:25;6.07;;;2.88;;
69900;SDS011;57183;50.930;5.406;2023-02-08T14:24:00;4.55;;;3.03;;
69900;SDS011;57183;50.930;5.406;2023-02-08T14:26:31;4.63;;;3.13;;
69900;SDS011;57183;50.930;5.406;2023-02-08T14:28:59;4.75;;;3.25;;
69900;SDS011;57183;50.930;5.406;2023-02-08T14:31:47;6.35;;;3.38;;
69900;SDS011;57183;50.930;5.406;2023-02-08T14:34:27;4.95;;;3.30;;
69900;SDS011;57183;50.930;5.406;2023-02-08T14:37:00;6.00;;;3.20;;
69900;SDS011;57183;50.930;5.406;2023-02-08T14:39:35;5.65;;;3.33;;
69900;SDS011;57183;50.930;5.406;2023-02-08T14:42:05;6.88;;;3.10;;
69900;SDS011;57183;50.930;5.406;2023-02-08T14:52:46;5.50;;;3.28;;
69900;SDS011;57183;50.930;5.406;2023-02-08T14:55:24;4.72;;;3.55;;
69900;SDS011;57183;50.930;5.406;2023-02-08T14:57:54;6.13;;;3.20;;
69900;SDS011;57183;50.930;5.406;2023-02-08T15:00:22;7.18;;;4.40;;
69900;SDS011;57183;50.930;5.406;2023-02-08T15:02:59;8.00;;;4.50;;
69900;SDS011;57183;50.930;5.406;2023-02-08T15:05:28;8.70;;;3.15;;
69900;SDS011;57183;50.930;5.406;2023-02-08T15:07:58;10.25;;;3.65;;
69900;SDS011;57183;50.930;5.406;2023-02-08T15:10:28;6.07;;;2.72;;
69900;SDS011;57183;50.930;5.406;2023-02-08T15:12:56;3.47;;;2.95;;
69900;SDS011;57183;50.930;5.406;2023-02-08T15:15:33;6.95;;;3.75;;
69900;SDS011;57183;50.930;5.406;2023-02-08T15:18:03;7.15;;;3.15;;
69900;SDS011;57183;50.930;5.406;2023-02-08T15:20:33;3.67;;;2.70;;
69900;SDS011;57183;50.930;5.406;2023-02-08T15:23:20;3.13;;;2.30;;
69900;SDS011;57183;50.930;5.406;2023-02-08T15:25:57;5.35;;;3.25;;
69900;SDS011;57183;50.930;5.406;2023-02-08T15:28:28;8.93;;;4.30;;
69900;SDS011;57183;50.930;5.406;2023-02-08T15:32:26;6.10;;;2.88;;
69900;SDS011;57183;50.930;5.406;2023-02-08T15:34:54;6.55;;;2.85;;
69900;SDS011;57183;50.930;5.406;2023-02-08T15:37:25;4.65;;;3.17;;
69900;SDS011;57183;50.930;5.406;2023-02-08T15:39:55;5.00;;;3.08;;
69900;SDS011;57183;50.930;5.406;2023-02-08T15:42:26;6.03;;;2.90;;
69900;SDS011;57183;50.930;5.406;2023-02-08T15:47:29;5.10;;;3.53;;
69900;SDS011;57183;50.930;5.406;2023-02-08T15:49:57;4.35;;;3.00;;
69900;SDS011;57183;50.930;5.406;2023-02-08T15:52:25;4.97;;;3.88;;
69900;SDS011;57183;50.930;5.406;2023-02-08T15:54:54;11.30;;;6.05;;
69900;SDS011;57183;50.930;5.406;2023-02-08T15:57:33;7.05;;;4.13;;
69900;SDS011;57183;50.930;5.406;2023-02-08T16:00:04;6.30;;;3.92;;
69900;SDS011;57183;50.930;5.406;2023-02-08T16:02:39;9.15;;;3.58;;
69900;SDS011;57183;50.930;5.406;2023-02-08T16:05:25;7.03;;;4.32;;
69900;SDS011;57183;50.930;5.406;2023-02-08T16:07:52;11.27;;;4.80;;
69900;SDS011;57183;50.930;5.406;2023-02-08T16:12:58;6.82;;;4.45;;
69900;SDS011;57183;50.930;5.406;2023-02-08T16:18:03;8.88;;;5.78;;
69900;SDS011;57183;50.930;5.406;2023-02-08T16:20:31;14.27;;;6.13;;
69900;SDS011;57183;50.930;5.406;2023-02-08T16:23:02;6.93;;;4.53;;
69900;SDS011;57183;50.930;5.406;2023-02-08T16:25:49;11.25;;;5.97;;
69900;SDS011;57183;50.930;5.406;2023-02-08T16:28:20;14.77;;;5.88;;
69900;SDS011;57183;50.930;5.406;2023-02-08T16:30:54;24.80;;;10.40;;
69900;SDS011;57183;50.930;5.406;2023-02-08T16:33:21;23.35;;;9.00;;
69900;SDS011;57183;50.930;5.406;2023-02-08T16:35:47;11.23;;;6.15;;
69900;SDS011;57183;50.930;5.406;2023-02-08T16:38:16;12.88;;;6.10;;
69900;SDS011;57183;50.930;5.406;2023-02-08T16:40:51;9.80;;;6.70;;
69900;SDS011;57183;50.930;5.406;2023-02-08T16:46:18;16.10;;;7.38;;
69900;SDS011;57183;50.930;5.406;2023-02-08T16:48:52;9.90;;;6.35;;
69900;SDS011;57183;50.930;5.406;2023-02-08T16:51:24;12.77;;;6.28;;
69900;SDS011;57183;50.930;5.406;2023-02-08T16:53:56;11.63;;;6.95;;
69900;SDS011;57183;50.930;5.406;2023-02-08T16:56:26;7.10;;;5.35;;
69900;SDS011;57183;50.930;5.406;2023-02-08T16:58:52;8.30;;;5.80;;
69900;SDS011;57183;50.930;5.406;2023-02-08T17:01:18;8.88;;;5.60;;
69900;SDS011;57183;50.930;5.406;2023-02-08T17:03:45;10.10;;;5.85;;
69900;SDS011;57183;50.930;5.406;2023-02-08T17:06:22;10.10;;;6.30;;
69900;SDS011;57183;50.930;5.406;2023-02-08T17:08:54;9.65;;;6.00;;
69900;SDS011;57183;50.930;5.406;2023-02-08T17:11:20;9.18;;;6.18;;
69900;SDS011;57183;50.930;5.406;2023-02-08T17:13:46;12.85;;;6.53;;
69900;SDS011;57183;50.930;5.406;2023-02-08T17:16:15;11.32;;;7.38;;
69900;SDS011;57183;50.930;5.406;2023-02-08T17:18:43;9.40;;;6.45;;
69900;SDS011;57183;50.930;5.406;2023-02-08T17:21:09;15.00;;;6.53;;
69900;SDS011;57183;50.930;5.406;2023-02-08T17:23:35;9.15;;;6.70;;
69900;SDS011;57183;50.930;5.406;2023-02-08T17:26:01;11.10;;;6.13;;
69900;SDS011;57183;50.930;5.406;2023-02-08T17:28:27;15.77;;;6.60;;